PASIPAPG

Guest
Details From PASI - Sitka Rocky Gutierrez
To PAPG - Petersburg James A Johnson
Flight Number -
Tags Generated
Created
Modified
Stats Distance 81 nm / 149 km
Max Altitude 0 ft / 0 m
Waypoints 2
Social Downloads 1
Likes 0
Share VATSIM

Download

Looking for another format? Having issues loading an existing format? Contact us
Advertisement - Login to hide

Notes

Generated

Route

PASI PAPG

ID Type Via Altitude Latitude Longitude Leg Dist Tot Dist Heading (true) Name
O PASI APT - 0 ft / 0 m 57.05347˚ -135.37303˚ - 0 nm - -
O PAPG APT - 0 ft / 0 m 56.79894˚ -132.95942˚ 80 nm 80 nm 100° / 102° -

Altitude Profile

Advertisement - Login to hide

PASI

Details ICAO PASI (SIT)
Name SITKA ROCKY GUTIERREZ
Region USA (Alaska)
Timezone America/Juneau (UTC-9.0)
Stats Elevation 21 ft / 6 m (AMSL)
Location 57.047128° -135.361597°
Runways 1
Magnetic Variation 18.752° E

METAR

PASI 140553Z 12013KT 6SM -RA BKN045 OVC055 09/06 A2996

Decode

TAF

PASI 140531Z 1406/1506 11020G25KT 6SM -RA OVC040 WS020/16050KT FM140900 13025G35KT 4SM RA BR SCT015 OVC030 WS020/15045KT FM141600 13015G25KT 4SM -RA BR OVC025 WS020/15035KT FM142100 23010KT P6SM -SHRA OVC025 FM150300 20012KT P6SM -SHRA SCT025 OVC050

Decode

Departure Runways

ID Width Length Bearing (true) Bearing (mag) Surface Threshold Offset Overrun Length
11 150 ft / 46 m 6,485 ft / 1,977 m 135.57° 116.82° Asphalt 0 ft / 0 m 0 ft / 0 m
29 150 ft / 46 m 6,485 ft / 1,977 m 315.59° 296.84° Asphalt 0 ft / 0 m 0 ft / 0 m

PAPG

Details ICAO PAPG (PSG)
Name PETERSBURG JAMES A JOHNSON
Region USA (Alaska)
Timezone America/Juneau (UTC-9.0)
Stats Elevation 105 ft / 32 m (AMSL)
Location 56.801651° -132.945289°
Runways 1
Magnetic Variation 18.867° E

METAR

PAPG 140556Z 27006KT 7SM RA FEW013 OVC025 08/07 A3014 RMK AO2 SLP212 P0028 60081 T00780072 10089 20078 $

Decode

TAF

PAPG 140531Z 1406/1506 VRB05KT 6SM -RA FEW015 OVC025 WS020/14040KT FM140900 11010G20KT 4SM RA BR SCT010 OVC020 WS020/15040KT FM141500 11010KT 3SM RA BR OVC010 WS020/15035KT FM150000 17005KT 5SM -SHRA BKN015 OVC025 AMD LTD TO CLD VIS AND WIND 1406/1415

Decode

Destination Runways

ID Width Length Bearing (true) Bearing (mag) Surface Threshold Offset Overrun Length
04 150 ft / 46 m 5,982 ft / 1,823 m 70.70° 51.83° Asphalt 0 ft / 0 m 0 ft / 0 m
22 150 ft / 46 m 5,982 ft / 1,823 m 250.73° 231.86° Asphalt 0 ft / 0 m 0 ft / 0 m

Approach Navaids

Runway Type Ident Frequency Range Bearing (true) Bearing (mag) Slope Elevation
22 Localiser IPSG 110.50 MHz 18 nm / 33 km 185.00° 166.13° - 151 ft / 46 m (AMSL)
22 DME IPSG 110.50 MHz 18 nm / 33 km - - - 164 ft / 50 m (AMSL)

Popular Alternatives